createdAt,value
2019-03-29T00:00:04.441Z,10.36
2019-03-29T00:01:04.444Z,10.33
2019-03-29T00:02:04.383Z,10.32
2019-03-29T00:03:04.379Z,10.36
2019-03-29T00:04:04.420Z,10.44
2019-03-29T00:05:04.362Z,10.38
2019-03-29T00:06:04.348Z,10.30
2019-03-29T00:07:04.340Z,10.36
2019-03-29T00:08:04.319Z,10.34
2019-03-29T00:09:04.305Z,10.40
2019-03-29T00:10:04.346Z,10.48
2019-03-29T00:11:04.284Z,10.40
2019-03-29T00:12:05.001Z,10.38
2019-03-29T00:13:04.260Z,10.38
2019-03-29T00:14:04.244Z,10.40
2019-03-29T00:15:04.291Z,10.41
2019-03-29T00:16:04.233Z,10.45
2019-03-29T00:17:04.212Z,10.51
2019-03-29T00:18:04.206Z,10.53
2019-03-29T00:19:04.200Z,10.40
2019-03-29T00:20:06.183Z,10.45
2019-03-29T00:21:04.261Z,10.42
2019-03-29T00:22:04.950Z,10.44
2019-03-29T00:23:04.244Z,10.51
2019-03-29T00:24:07.095Z,10.36
2019-03-29T00:25:04.128Z,10.45
2019-03-29T00:26:04.110Z,10.47
2019-03-29T00:27:04.107Z,10.41
2019-03-29T00:28:04.093Z,10.48
2019-03-29T00:29:04.130Z,10.44
2019-03-29T00:30:04.069Z,10.41
2019-03-29T00:31:04.064Z,10.40
2019-03-29T00:32:04.048Z,10.38
2019-03-29T00:33:04.044Z,10.33
2019-03-29T00:34:04.056Z,10.38
2019-03-29T00:35:04.022Z,10.42
2019-03-29T00:36:04.033Z,10.40
2019-03-29T00:37:04.037Z,10.41
2019-03-29T00:38:03.984Z,10.44
2019-03-29T00:39:03.967Z,10.48
2019-03-29T00:40:04.012Z,10.45
2019-03-29T00:41:03.947Z,10.48
2019-03-29T00:42:03.944Z,10.51
2019-03-29T00:43:03.934Z,10.51
2019-03-29T00:44:03.938Z,10.45
2019-03-29T00:45:03.901Z,10.52
2019-03-29T00:46:03.929Z,10.47
2019-03-29T00:47:04.068Z,10.42
2019-03-29T00:48:03.876Z,10.41
2019-03-29T00:49:03.868Z,10.40
2019-03-29T00:50:03.845Z,10.34
2019-03-29T00:51:03.837Z,10.22
2019-03-29T00:52:03.864Z,10.25
2019-03-29T00:53:03.857Z,10.26
2019-03-29T00:54:03.824Z,10.17
2019-03-29T00:55:03.799Z,10.20
2019-03-29T00:56:03.791Z,10.26
2019-03-29T00:57:04.874Z,10.22
2019-03-29T00:58:03.766Z,10.25
2019-03-29T00:59:03.753Z,10.23
2019-03-29T01:00:03.755Z,10.20
2019-03-29T01:01:03.735Z,10.23
2019-03-29T01:02:03.769Z,10.23
2019-03-29T01:03:03.708Z,10.23
2019-03-29T01:04:03.696Z,10.22
2019-03-29T01:05:03.684Z,10.18
2019-03-29T01:06:03.676Z,10.05
2019-03-29T01:07:04.828Z,10.05
2019-03-29T01:08:08.236Z,10.17
2019-03-29T01:09:04.987Z,10.08
2019-03-29T01:10:03.638Z,10.11
2019-03-29T01:11:03.619Z,10.08
2019-03-29T01:12:03.604Z,10.11
2019-03-29T01:13:03.633Z,10.12
2019-03-29T01:14:03.589Z,10.08
2019-03-29T01:15:03.578Z,10.08
2019-03-29T01:16:03.601Z,10.08
2019-03-29T01:17:03.574Z,10.09
2019-03-29T01:18:03.545Z,10.07
2019-03-29T01:19:04.023Z,10.04
2019-03-29T01:20:03.527Z,10.07
2019-03-29T01:21:03.538Z,10.04
2019-03-29T01:22:03.501Z,9.99
2019-03-29T01:23:03.483Z,10.01
2019-03-29T01:24:03.511Z,10.04
2019-03-29T01:25:03.471Z,10.04
2019-03-29T01:26:03.458Z,10.09
2019-03-29T01:27:03.445Z,10.11
2019-03-29T01:28:03.438Z,10.11
2019-03-29T01:29:04.564Z,10.23
2019-03-29T01:30:03.409Z,10.14
2019-03-29T01:31:03.401Z,10.20
2019-03-29T01:32:03.393Z,10.17
2019-03-29T01:33:03.393Z,10.22
2019-03-29T01:34:03.424Z,10.25
2019-03-29T01:35:03.396Z,10.25
2019-03-29T01:36:03.344Z,10.22
2019-03-29T01:37:03.327Z,10.23
2019-03-29T01:38:03.323Z,10.20
2019-03-29T01:39:03.303Z,10.32
2019-03-29T01:40:03.340Z,10.20
2019-03-29T01:41:03.290Z,10.20
2019-03-29T01:42:03.275Z,10.27
2019-03-29T01:43:03.278Z,10.27
2019-03-29T01:44:03.256Z,10.32
2019-03-29T01:45:03.276Z,10.30
2019-03-29T01:46:03.266Z,10.36
2019-03-29T01:47:04.000Z,10.34
2019-03-29T01:48:03.208Z,10.48
2019-03-29T01:49:03.197Z,10.42
2019-03-29T01:50:03.180Z,10.48
2019-03-29T01:51:03.210Z,10.52
2019-03-29T01:52:03.171Z,10.44
2019-03-29T01:53:03.158Z,10.40
2019-03-29T01:54:04.097Z,10.40
2019-03-29T01:55:03.128Z,10.38
2019-03-29T01:56:03.166Z,10.33
2019-03-29T01:57:03.175Z,10.34
2019-03-29T01:58:03.091Z,10.30
2019-03-29T01:59:03.085Z,10.33
2019-03-29T02:00:03.076Z,10.41
2019-03-29T02:01:03.263Z,10.40
2019-03-29T02:02:03.090Z,10.48
2019-03-29T02:03:03.179Z,10.41
2019-03-29T02:04:05.824Z,10.41
2019-03-29T02:05:03.014Z,10.40
2019-03-29T02:06:03.004Z,10.40
2019-03-29T02:07:03.034Z,10.38
2019-03-29T02:08:03.043Z,10.38
2019-03-29T02:09:02.975Z,10.41
2019-03-29T02:10:02.963Z,10.32
2019-03-29T02:11:02.945Z,10.33
2019-03-29T02:12:02.937Z,10.40
2019-03-29T02:13:02.927Z,10.36
2019-03-29T02:14:02.953Z,10.33
2019-03-29T02:15:02.914Z,10.29
2019-03-29T02:16:03.175Z,10.33
2019-03-29T02:17:02.878Z,10.29
2019-03-29T02:18:02.928Z,10.32
2019-03-29T02:19:02.855Z,10.36
2019-03-29T02:20:02.848Z,10.29
2019-03-29T02:21:02.836Z,10.38
2019-03-29T02:22:02.898Z,10.32
2019-03-29T02:23:03.951Z,10.34
2019-03-29T02:24:02.841Z,10.40
2019-03-29T02:25:02.797Z,10.38
2019-03-29T02:26:02.784Z,10.32
2019-03-29T02:27:02.775Z,10.33
2019-03-29T02:28:02.766Z,10.40
2019-03-29T02:29:02.799Z,10.40
2019-03-29T02:30:04.253Z,10.33
2019-03-29T02:31:02.734Z,10.41
2019-03-29T02:32:02.745Z,10.40
2019-03-29T02:33:02.702Z,10.42
2019-03-29T02:34:02.691Z,10.41
2019-03-29T02:35:02.723Z,10.36
2019-03-29T02:36:02.669Z,10.40
2019-03-29T02:37:02.803Z,10.38
2019-03-29T02:38:02.649Z,10.32
2019-03-29T02:39:02.690Z,10.29
2019-03-29T02:40:02.651Z,10.41
2019-03-29T02:41:02.642Z,10.32
2019-03-29T02:42:02.607Z,10.34
2019-03-29T02:43:02.597Z,10.33
2019-03-29T02:44:02.578Z,10.34
2019-03-29T02:45:03.579Z,10.33
2019-03-29T02:46:02.592Z,10.34
2019-03-29T02:47:02.544Z,10.29
2019-03-29T02:48:02.542Z,10.36
2019-03-29T02:49:02.533Z,10.34
2019-03-29T02:50:02.547Z,10.36
2019-03-29T02:51:04.495Z,10.44
2019-03-29T02:52:02.505Z,10.34
2019-03-29T02:53:02.479Z,10.40
2019-03-29T02:54:02.472Z,10.40
2019-03-29T02:55:02.494Z,10.41
2019-03-29T02:56:02.450Z,10.47
2019-03-29T02:57:02.436Z,10.47
2019-03-29T02:58:02.424Z,10.42
2019-03-29T02:59:02.409Z,10.42
2019-03-29T03:00:02.418Z,10.42
2019-03-29T03:01:02.423Z,10.41
2019-03-29T03:02:02.391Z,10.44
2019-03-29T03:03:02.372Z,10.32
2019-03-29T03:04:02.383Z,10.40
2019-03-29T03:05:02.386Z,10.41
2019-03-29T03:06:02.334Z,10.38
2019-03-29T03:07:02.327Z,10.33
2019-03-29T03:08:02.357Z,10.38
2019-03-29T03:09:13.092Z,10.34
2019-03-29T03:10:03.290Z,10.34
2019-03-29T03:11:02.288Z,10.33
2019-03-29T03:12:02.302Z,10.32
2019-03-29T03:13:02.258Z,10.33
2019-03-29T03:14:02.252Z,10.32
2019-03-29T03:15:02.270Z,10.36
2019-03-29T03:16:02.259Z,10.34
2019-03-29T03:17:02.271Z,10.32
2019-03-29T03:18:02.208Z,10.32
2019-03-29T03:19:02.212Z,10.33
2019-03-29T03:20:02.181Z,10.36
2019-03-29T03:21:02.203Z,10.38
2019-03-29T03:22:02.206Z,10.38
2019-03-29T03:23:02.160Z,10.38
2019-03-29T03:24:02.170Z,10.33
2019-03-29T03:25:02.130Z,10.32
2019-03-29T03:26:02.131Z,10.29
2019-03-29T03:27:02.104Z,10.23
2019-03-29T03:28:02.130Z,10.29
2019-03-29T03:29:02.088Z,10.18
2019-03-29T03:30:02.074Z,10.26
2019-03-29T03:31:02.088Z,10.26
2019-03-29T03:32:02.085Z,10.18
2019-03-29T03:33:02.073Z,10.18
2019-03-29T03:34:02.034Z,10.18
2019-03-29T03:35:02.033Z,10.22
2019-03-29T03:36:02.015Z,10.30
2019-03-29T03:37:01.989Z,10.23
2019-03-29T03:38:01.979Z,10.26
2019-03-29T03:39:02.006Z,10.23
2019-03-29T03:40:01.974Z,10.25
2019-03-29T03:41:01.947Z,10.23
2019-03-29T03:42:01.931Z,10.33
2019-03-29T03:43:01.921Z,10.38
2019-03-29T03:44:01.949Z,10.33
2019-03-29T03:45:01.915Z,10.33
2019-03-29T03:46:01.890Z,10.32
2019-03-29T03:47:01.881Z,10.38
2019-03-29T03:48:01.872Z,10.32
2019-03-29T03:49:01.910Z,10.36
2019-03-29T03:50:02.147Z,10.29
2019-03-29T03:51:01.831Z,10.29
2019-03-29T03:52:01.824Z,10.30
2019-03-29T03:53:01.812Z,10.26
2019-03-29T03:54:01.810Z,10.20
2019-03-29T03:55:01.856Z,10.25
2019-03-29T03:56:01.841Z,10.18
2019-03-29T03:57:01.773Z,10.29
2019-03-29T03:58:01.764Z,10.26
2019-03-29T03:59:01.746Z,10.23
2019-03-29T04:00:01.761Z,10.26
2019-03-29T04:01:01.763Z,10.32
2019-03-29T04:02:01.714Z,10.34
2019-03-29T04:03:01.699Z,10.40
2019-03-29T04:04:01.688Z,10.30
2019-03-29T04:05:01.676Z,10.30
2019-03-29T04:06:01.705Z,10.29
2019-03-29T04:07:01.689Z,10.29
2019-03-29T04:08:01.647Z,10.29
2019-03-29T04:09:01.754Z,10.22
2019-03-29T04:10:01.630Z,10.32
2019-03-29T04:11:01.656Z,10.22
2019-03-29T04:12:01.607Z,10.22
2019-03-29T04:13:01.599Z,10.22
2019-03-29T04:14:01.593Z,10.12
2019-03-29T04:15:01.580Z,10.14
2019-03-29T04:16:01.554Z,10.23
2019-03-29T04:17:01.586Z,10.15
2019-03-29T04:18:01.533Z,10.14
2019-03-29T04:19:01.536Z,10.14
2019-03-29T04:20:01.518Z,10.17
2019-03-29T04:21:01.498Z,10.20
2019-03-29T04:22:01.486Z,10.23
2019-03-29T04:23:01.513Z,10.29
2019-03-29T04:24:01.464Z,10.23
2019-03-29T04:25:01.470Z,10.27
2019-03-29T04:26:01.455Z,10.22
2019-03-29T04:27:01.498Z,10.32
2019-03-29T04:28:01.425Z,10.29
2019-03-29T04:29:04.849Z,10.29
2019-03-29T04:30:01.410Z,10.20
2019-03-29T04:31:01.397Z,10.25
2019-03-29T04:32:01.382Z,10.20
2019-03-29T04:33:01.422Z,10.23
2019-03-29T04:34:01.356Z,10.23
2019-03-29T04:35:01.355Z,10.25
2019-03-29T04:36:01.334Z,10.20
2019-03-29T04:37:01.331Z,10.22
2019-03-29T04:38:01.312Z,10.33
2019-03-29T04:39:01.343Z,10.22
2019-03-29T04:40:08.053Z,10.22
2019-03-29T04:41:02.289Z,10.15
2019-03-29T04:42:01.271Z,10.22
2019-03-29T04:43:01.258Z,10.20
2019-03-29T04:44:01.296Z,10.22
2019-03-29T04:45:01.235Z,10.26
2019-03-29T04:46:01.227Z,10.18
2019-03-29T04:47:01.215Z,10.26
2019-03-29T04:48:01.211Z,10.29
2019-03-29T04:49:01.232Z,10.33
2019-03-29T04:50:01.182Z,10.40
2019-03-29T04:51:01.170Z,10.41
2019-03-29T04:52:01.153Z,10.44
2019-03-29T04:53:01.156Z,10.47
2019-03-29T04:54:01.149Z,10.45
2019-03-29T04:55:01.194Z,10.41
2019-03-29T04:56:01.109Z,10.47
2019-03-29T04:57:01.105Z,10.55
2019-03-29T04:58:01.088Z,10.61
2019-03-29T04:59:01.127Z,10.55
2019-03-29T05:00:01.124Z,10.59
2019-03-29T05:01:01.060Z,10.55
2019-03-29T05:02:01.043Z,10.59
2019-03-29T05:03:01.050Z,10.56
2019-03-29T05:04:01.025Z,10.59
2019-03-29T05:05:01.053Z,10.55
2019-03-29T05:06:01.005Z,10.60
2019-03-29T05:07:00.995Z,10.56
2019-03-29T05:08:00.983Z,10.59
2019-03-29T05:09:00.966Z,10.55
2019-03-29T05:10:01.026Z,10.55
2019-03-29T05:11:00.946Z,10.55
2019-03-29T05:12:00.936Z,10.59
2019-03-29T05:13:00.936Z,10.55
2019-03-29T05:14:00.910Z,10.52
2019-03-29T05:15:00.910Z,10.59
2019-03-29T05:16:00.945Z,10.59
2019-03-29T05:17:00.878Z,10.53
2019-03-29T05:18:00.867Z,10.55
2019-03-29T05:19:00.858Z,10.60
2019-03-29T05:20:00.863Z,10.55
2019-03-29T05:21:00.878Z,10.59
2019-03-29T05:22:00.829Z,10.44
2019-03-29T05:23:00.811Z,10.42
2019-03-29T05:24:00.852Z,10.40
2019-03-29T05:25:00.798Z,10.44
2019-03-29T05:26:00.786Z,10.42
2019-03-29T05:27:00.775Z,10.34
2019-03-29T05:28:00.757Z,10.40
2019-03-29T05:29:00.753Z,10.41
2019-03-29T05:30:00.778Z,10.40
2019-03-29T05:31:00.735Z,10.40
2019-03-29T05:32:00.717Z,10.38
2019-03-29T05:33:00.704Z,10.45
2019-03-29T05:34:00.732Z,10.44
2019-03-29T05:35:00.689Z,10.41
2019-03-29T05:36:00.674Z,10.34
2019-03-29T05:37:00.704Z,10.33
2019-03-29T05:38:00.722Z,10.40
2019-03-29T05:39:00.636Z,10.38
2019-03-29T05:40:00.623Z,10.41
2019-03-29T05:41:00.619Z,10.34
2019-03-29T05:42:00.613Z,10.32
2019-03-29T05:43:00.607Z,10.45
2019-03-29T05:44:00.641Z,10.47
2019-03-29T05:45:00.580Z,10.45
2019-03-29T05:46:00.564Z,10.44
2019-03-29T05:47:00.551Z,10.42
2019-03-29T05:48:00.576Z,10.47
2019-03-29T05:49:00.550Z,10.45
2019-03-29T05:50:00.525Z,10.47
2019-03-29T05:51:00.507Z,10.34
2019-03-29T05:52:00.494Z,10.38
2019-03-29T05:53:00.571Z,10.32
2019-03-29T05:54:00.472Z,10.26
2019-03-29T05:55:00.510Z,10.29
2019-03-29T05:56:00.455Z,10.27
2019-03-29T05:57:00.439Z,10.32
2019-03-29T05:58:00.431Z,10.36
2019-03-29T05:59:00.459Z,10.36
2019-03-29T06:00:00.414Z,10.38
2019-03-29T06:01:00.400Z,10.42
2019-03-29T06:02:00.396Z,10.44
2019-03-29T06:03:00.373Z,10.44
2019-03-29T06:04:00.407Z,10.48
2019-03-29T06:05:00.399Z,10.47
2019-03-29T06:06:00.340Z,10.59
2019-03-29T06:07:00.333Z,10.56
2019-03-29T06:08:00.321Z,10.61
2019-03-29T06:09:00.315Z,10.66
2019-03-29T06:10:00.486Z,10.68
2019-03-29T06:11:00.329Z,10.76
2019-03-29T06:12:00.286Z,10.78
2019-03-29T06:13:00.280Z,10.79
2019-03-29T06:14:00.256Z,10.76
2019-03-29T06:15:00.386Z,10.78
2019-03-29T06:16:00.277Z,10.86
2019-03-29T06:17:00.233Z,10.82
2019-03-29T06:18:00.214Z,10.94
2019-03-29T06:19:00.203Z,10.89
2019-03-29T06:20:00.376Z,11.02
2019-03-29T06:21:00.236Z,10.91
2019-03-29T06:22:00.177Z,10.97
2019-03-29T06:23:00.168Z,10.99
2019-03-29T06:24:00.166Z,10.89
2019-03-29T06:25:00.151Z,10.91
2019-03-29T06:26:00.136Z,10.88
2019-03-29T06:27:00.156Z,10.86
2019-03-29T06:28:00.114Z,10.79
2019-03-29T06:29:00.098Z,10.85
2019-03-29T06:30:00.145Z,10.81
2019-03-29T06:31:00.118Z,10.86
2019-03-29T06:32:00.061Z,10.84
2019-03-29T06:33:00.094Z,10.79
2019-03-29T06:34:00.048Z,10.81
2019-03-29T06:35:00.047Z,10.86
2019-03-29T06:36:00.022Z,10.82
2019-03-29T06:37:00.065Z,10.91
2019-03-29T06:38:00.001Z,10.89
2019-03-29T06:38:59.982Z,10.81
2019-03-29T06:39:59.975Z,10.84
2019-03-29T06:41:03.097Z,10.84
2019-03-29T06:42:00.022Z,10.94
2019-03-29T06:42:59.986Z,10.86
2019-03-29T06:43:59.931Z,10.96
2019-03-29T06:44:59.919Z,10.88
2019-03-29T06:45:59.909Z,10.91
2019-03-29T06:46:59.938Z,10.89
2019-03-29T06:47:59.910Z,10.91
2019-03-29T06:48:59.872Z,10.88
2019-03-29T06:49:59.859Z,10.91
2019-03-29T06:50:59.854Z,10.89
2019-03-29T06:51:59.907Z,10.84
2019-03-29T06:52:59.871Z,10.92
2019-03-29T06:53:59.820Z,10.92
2019-03-29T06:54:59.801Z,10.85
2019-03-29T06:55:59.797Z,10.84
2019-03-29T06:56:59.822Z,10.88
2019-03-29T06:57:59.814Z,10.82
2019-03-29T06:58:59.763Z,10.81
2019-03-29T06:59:59.751Z,10.85
2019-03-29T07:00:59.738Z,10.92
2019-03-29T07:01:59.722Z,10.92
2019-03-29T07:02:59.753Z,10.88
2019-03-29T07:03:59.741Z,10.91
2019-03-29T07:04:59.695Z,10.97
2019-03-29T07:05:59.691Z,10.96
2019-03-29T07:06:59.672Z,10.97
2019-03-29T07:07:59.663Z,10.97
2019-03-29T07:08:59.713Z,11.00
2019-03-29T07:09:59.630Z,10.97
2019-03-29T07:10:59.620Z,11.04
2019-03-29T07:11:59.617Z,11.10
2019-03-29T07:12:59.599Z,11.06
2019-03-29T07:13:59.596Z,11.17
2019-03-29T07:14:59.629Z,11.22
2019-03-29T07:15:59.606Z,11.19
2019-03-29T07:16:59.554Z,11.21
2019-03-29T07:17:59.555Z,11.15
2019-03-29T07:18:59.560Z,11.27
2019-03-29T07:19:59.573Z,11.25
2019-03-29T07:20:59.521Z,11.27
2019-03-29T07:21:59.500Z,11.22
2019-03-29T07:22:59.492Z,11.27
2019-03-29T07:23:59.488Z,11.24
2019-03-29T07:24:59.513Z,11.27
2019-03-29T07:25:59.454Z,11.33
2019-03-29T07:26:59.444Z,11.35
2019-03-29T07:27:59.437Z,11.27
2019-03-29T07:28:59.426Z,11.25
2019-03-29T07:29:59.403Z,11.33
2019-03-29T07:30:59.455Z,11.33
2019-03-29T07:31:59.383Z,11.32
2019-03-29T07:32:59.379Z,11.29
2019-03-29T07:33:59.365Z,11.27
2019-03-29T07:34:59.367Z,11.28
2019-03-29T07:35:59.349Z,11.32
2019-03-29T07:36:59.367Z,11.37
2019-03-29T07:37:59.318Z,11.33
2019-03-29T07:38:59.310Z,11.29
2019-03-29T07:39:59.296Z,11.28
2019-03-29T07:40:59.328Z,11.29
2019-03-29T07:41:59.314Z,11.35
2019-03-29T07:42:59.274Z,11.33
2019-03-29T07:43:59.261Z,11.37
2019-03-29T07:44:59.236Z,11.40
2019-03-29T07:45:59.305Z,11.39
2019-03-29T07:46:59.213Z,11.39
2019-03-29T07:47:59.212Z,11.37
2019-03-29T07:48:59.201Z,11.42
2019-03-29T07:49:59.181Z,11.40
2019-03-29T07:50:59.173Z,11.47
2019-03-29T07:51:59.242Z,11.37
2019-03-29T07:52:59.149Z,11.43
2019-03-29T07:53:59.145Z,11.44
2019-03-29T07:54:59.128Z,11.43
2019-03-29T07:55:59.115Z,11.43
2019-03-29T07:56:59.152Z,11.46
2019-03-29T07:57:59.090Z,11.40
2019-03-29T07:58:59.125Z,11.54
2019-03-29T07:59:59.072Z,11.58
2019-03-29T08:00:59.055Z,11.60
2019-03-29T08:01:59.089Z,11.69
2019-03-29T08:02:59.033Z,11.72
2019-03-29T08:03:59.031Z,11.69
2019-03-29T08:04:59.019Z,11.64
2019-03-29T08:05:59.065Z,11.61
2019-03-29T08:06:58.997Z,11.58
2019-03-29T08:07:59.907Z,11.61
2019-03-29T08:08:58.969Z,11.62
2019-03-29T08:09:58.960Z,11.70
2019-03-29T08:10:59.229Z,11.73
2019-03-29T08:11:58.955Z,11.69
2019-03-29T08:12:58.969Z,11.69
2019-03-29T08:13:58.981Z,11.72
2019-03-29T08:14:58.910Z,11.82
2019-03-29T08:15:58.892Z,11.83
2019-03-29T08:16:58.880Z,11.88
2019-03-29T08:18:01.570Z,11.86
2019-03-29T08:18:58.866Z,11.98
2019-03-29T08:20:35.622Z,12.04
2019-03-29T08:20:59.840Z,12.07
2019-03-29T08:21:58.853Z,12.14
2019-03-29T08:22:58.818Z,11.98
2019-03-29T08:23:58.802Z,12.04
2019-03-29T08:24:59.419Z,12.01
2019-03-29T08:25:58.807Z,12.14
2019-03-29T08:26:58.774Z,12.12
2019-03-29T08:27:58.757Z,12.09
2019-03-29T08:28:58.822Z,12.04
2019-03-29T08:29:58.745Z,12.05
2019-03-29T08:30:58.726Z,12.17
2019-03-29T08:31:58.714Z,12.20
2019-03-29T08:32:58.707Z,12.16
2019-03-29T08:33:58.692Z,12.04
2019-03-29T08:34:58.723Z,12.05
2019-03-29T08:35:58.675Z,12.10
2019-03-29T08:36:58.663Z,12.07
2019-03-29T08:37:58.647Z,11.99
2019-03-29T08:38:58.636Z,12.12
2019-03-29T08:39:58.631Z,12.09
2019-03-29T08:40:58.660Z,12.20
2019-03-29T08:42:00.430Z,12.17
2019-03-29T08:42:58.634Z,12.14
2019-03-29T08:43:58.584Z,12.12
2019-03-29T08:44:58.568Z,12.12
2019-03-29T08:45:58.562Z,12.09
2019-03-29T08:46:58.595Z,12.12
2019-03-29T08:47:58.543Z,12.12
2019-03-29T08:48:58.524Z,12.12
2019-03-29T08:49:58.521Z,12.19
2019-03-29T08:50:58.508Z,12.24
2019-03-29T08:51:58.533Z,12.24
2019-03-29T08:52:58.486Z,12.32
2019-03-29T08:53:58.471Z,12.32
2019-03-29T08:54:58.463Z,12.37
2019-03-29T08:55:58.452Z,12.39
2019-03-29T08:56:58.444Z,12.41
2019-03-29T08:57:58.500Z,12.37
2019-03-29T08:58:58.414Z,12.29
2019-03-29T08:59:58.408Z,12.31
2019-03-29T09:00:58.398Z,12.28
2019-03-29T09:01:58.395Z,12.27
2019-03-29T09:02:58.381Z,12.17
2019-03-29T09:04:05.299Z,12.21
2019-03-29T09:04:59.344Z,12.16
2019-03-29T09:05:58.337Z,12.14
2019-03-29T09:06:58.327Z,12.20
2019-03-29T09:07:58.311Z,12.24
2019-03-29T09:08:58.351Z,12.20
2019-03-29T09:09:58.298Z,12.17
2019-03-29T09:10:58.287Z,12.24
2019-03-29T09:11:58.276Z,12.28
2019-03-29T09:12:58.302Z,12.27
2019-03-29T09:13:58.306Z,12.17
2019-03-29T09:14:58.235Z,12.10
2019-03-29T09:15:58.234Z,12.13
2019-03-29T09:16:58.223Z,12.12
2019-03-29T09:17:59.939Z,12.12
2019-03-29T09:18:58.197Z,12.09
2019-03-29T09:19:58.248Z,12.05
2019-03-29T09:20:58.173Z,12.07
2019-03-29T09:21:58.154Z,12.13
2019-03-29T09:22:58.146Z,12.09
2019-03-29T09:23:58.140Z,12.16
2019-03-29T09:24:58.127Z,12.19
2019-03-29T09:25:58.168Z,12.19
2019-03-29T09:26:58.107Z,12.14
2019-03-29T09:27:58.097Z,12.14
2019-03-29T09:28:58.087Z,12.01
2019-03-29T09:29:58.105Z,11.98
2019-03-29T09:30:58.074Z,12.01
2019-03-29T09:31:58.084Z,12.12
2019-03-29T09:32:58.037Z,12.20
2019-03-29T09:33:58.768Z,12.19
2019-03-29T09:34:58.022Z,12.28
2019-03-29T09:35:58.001Z,12.20
2019-03-29T09:36:59.920Z,12.17
2019-03-29T09:37:57.991Z,12.09
2019-03-29T09:38:57.996Z,12.13
2019-03-29T09:39:57.955Z,12.16
2019-03-29T09:40:59.228Z,12.12
2019-03-29T09:41:57.980Z,12.14
2019-03-29T09:43:07.333Z,12.17
2019-03-29T09:43:58.912Z,12.19
2019-03-29T09:44:57.914Z,12.05
2019-03-29T09:45:57.931Z,12.16
2019-03-29T09:46:57.884Z,12.24
2019-03-29T09:47:57.870Z,12.20
2019-03-29T09:48:57.903Z,12.17
2019-03-29T09:49:57.861Z,12.17
2019-03-29T09:50:57.868Z,12.23
2019-03-29T09:51:57.825Z,12.19
2019-03-29T09:53:00.914Z,12.19
2019-03-29T09:53:58.088Z,12.17
2019-03-29T09:54:57.792Z,12.13
2019-03-29T09:55:57.775Z,12.13
2019-03-29T09:56:57.765Z,12.05
2019-03-29T09:57:57.758Z,12.10
2019-03-29T09:58:57.784Z,12.10
2019-03-29T09:59:57.744Z,12.13
2019-03-29T10:00:57.730Z,12.20
2019-03-29T10:01:57.718Z,12.09
2019-03-29T10:02:57.707Z,12.13
2019-03-29T10:03:57.698Z,12.13
2019-03-29T10:04:57.717Z,12.13
2019-03-29T10:05:57.671Z,12.07
2019-03-29T10:06:57.661Z,12.12
2019-03-29T10:07:57.652Z,12.09
2019-03-29T10:08:57.709Z,12.13
2019-03-29T10:09:57.658Z,12.13
2019-03-29T10:10:57.624Z,12.13
2019-03-29T10:11:57.608Z,12.19
2019-03-29T10:12:57.599Z,12.12
2019-03-29T10:13:57.577Z,12.05
2019-03-29T10:14:57.604Z,12.04
2019-03-29T10:15:57.585Z,12.05
2019-03-29T10:16:57.561Z,11.99
2019-03-29T10:17:57.534Z,11.90
2019-03-29T10:18:57.524Z,12.01
2019-03-29T10:19:57.560Z,12.01
2019-03-29T10:20:57.504Z,12.01
2019-03-29T10:21:57.487Z,12.07
2019-03-29T10:22:57.537Z,12.16
2019-03-29T10:23:57.476Z,12.07
2019-03-29T10:24:57.464Z,12.14
2019-03-29T10:25:58.731Z,12.10
2019-03-29T10:26:57.455Z,12.12
2019-03-29T10:27:57.472Z,12.12
2019-03-29T10:28:57.411Z,12.13
2019-03-29T10:29:57.398Z,12.13
2019-03-29T10:30:57.390Z,12.13
2019-03-29T10:31:57.425Z,12.12
2019-03-29T10:32:57.381Z,12.17
2019-03-29T10:33:57.356Z,12.21
2019-03-29T10:34:57.343Z,12.32
2019-03-29T10:35:57.342Z,12.28
2019-03-29T10:36:57.363Z,12.28
2019-03-29T10:37:57.352Z,12.41
2019-03-29T10:38:57.303Z,12.39
2019-03-29T10:39:57.285Z,12.38
2019-03-29T10:40:57.279Z,12.39
2019-03-29T10:41:57.279Z,12.45
2019-03-29T10:42:58.442Z,12.32
2019-03-29T10:43:57.343Z,12.34
2019-03-29T10:44:57.235Z,12.46
2019-03-29T10:45:57.219Z,12.42
2019-03-29T10:46:57.224Z,12.42
2019-03-29T10:47:57.197Z,12.46
2019-03-29T10:48:57.199Z,12.46
2019-03-29T10:49:57.212Z,12.45
2019-03-29T10:50:57.178Z,12.41
2019-03-29T10:51:57.156Z,12.52
2019-03-29T10:52:57.146Z,12.45
2019-03-29T10:53:57.181Z,12.50
2019-03-29T10:54:57.209Z,12.54
2019-03-29T10:55:57.155Z,12.50
2019-03-29T10:56:57.109Z,12.50
2019-03-29T10:57:57.092Z,12.68
2019-03-29T10:58:57.090Z,12.64
2019-03-29T10:59:57.114Z,12.68
2019-03-29T11:00:57.057Z,12.59
2019-03-29T11:01:57.051Z,12.70
2019-03-29T11:02:57.033Z,12.74
2019-03-29T11:03:57.016Z,12.77
2019-03-29T11:04:57.151Z,12.62
2019-03-29T11:05:57.042Z,12.67
2019-03-29T11:06:56.986Z,12.82
2019-03-29T11:07:56.974Z,12.72
2019-03-29T11:08:56.966Z,12.78
2019-03-29T11:09:56.987Z,12.78
2019-03-29T11:10:56.982Z,12.85
2019-03-29T11:11:56.936Z,12.83
2019-03-29T11:13:11.405Z,12.86
2019-03-29T11:13:57.912Z,12.86
2019-03-29T11:14:56.904Z,12.86
2019-03-29T11:15:56.938Z,12.85
2019-03-29T11:16:56.943Z,12.85
2019-03-29T11:17:56.916Z,12.85
2019-03-29T11:18:56.854Z,12.87
2019-03-29T11:19:56.856Z,12.77
2019-03-29T11:20:56.835Z,12.85
2019-03-29T11:21:56.867Z,12.72
2019-03-29T11:22:56.866Z,12.68
2019-03-29T11:23:56.810Z,12.64
2019-03-29T11:24:56.794Z,12.64
2019-03-29T11:25:56.784Z,12.56
2019-03-29T11:26:56.765Z,12.49
2019-03-29T11:27:56.772Z,12.62
2019-03-29T11:28:56.794Z,12.59
2019-03-29T11:29:56.731Z,12.65
2019-03-29T11:30:56.727Z,12.64
2019-03-29T11:31:56.707Z,12.72
2019-03-29T11:32:56.759Z,12.70
2019-03-29T11:33:56.738Z,12.71
2019-03-29T11:34:56.680Z,12.67
2019-03-29T11:35:56.691Z,12.82
2019-03-29T11:36:56.664Z,12.97
2019-03-29T11:37:56.654Z,13.12
2019-03-29T11:38:56.697Z,13.10
2019-03-29T11:39:56.625Z,13.07
2019-03-29T11:40:56.609Z,13.12
2019-03-29T11:41:56.611Z,13.08
2019-03-29T11:42:56.594Z,13.08
2019-03-29T11:43:56.577Z,13.04
2019-03-29T11:44:56.608Z,13.10
2019-03-29T11:45:56.603Z,13.03
2019-03-29T11:46:56.548Z,12.97
2019-03-29T11:48:07.354Z,13.07
2019-03-29T11:48:57.568Z,13.01
2019-03-29T11:49:56.517Z,13.00
2019-03-29T11:50:56.507Z,13.05
2019-03-29T11:51:56.502Z,13.10
2019-03-29T11:52:56.480Z,13.14
2019-03-29T11:53:56.471Z,13.19
2019-03-29T11:54:56.522Z,13.11
2019-03-29T11:55:56.450Z,13.15
2019-03-29T11:56:56.442Z,13.17
2019-03-29T11:57:56.426Z,13.11
2019-03-29T11:58:56.429Z,13.19
2019-03-29T11:59:56.408Z,13.11
2019-03-29T12:00:56.480Z,13.03
2019-03-29T12:01:56.383Z,12.95
2019-03-29T12:02:56.371Z,12.92
2019-03-29T12:03:56.375Z,12.90
2019-03-29T12:04:56.345Z,12.92
2019-03-29T12:05:56.388Z,13.03
2019-03-29T12:06:56.329Z,13.05
2019-03-29T12:07:56.325Z,13.07
2019-03-29T12:08:57.225Z,13.00
2019-03-29T12:09:56.294Z,13.01
2019-03-29T12:10:56.341Z,12.97
2019-03-29T12:11:56.268Z,13.01
2019-03-29T12:12:56.264Z,12.96
2019-03-29T12:13:56.251Z,12.92
2019-03-29T12:14:56.232Z,13.03
2019-03-29T12:15:56.222Z,13.01
2019-03-29T12:16:56.283Z,13.12
2019-03-29T12:17:56.214Z,13.01
2019-03-29T12:18:56.206Z,13.07
2019-03-29T12:19:56.192Z,13.15
2019-03-29T12:20:56.173Z,13.12
2019-03-29T12:21:56.157Z,13.17
2019-03-29T12:22:56.202Z,13.23
2019-03-29T12:23:56.135Z,13.29
2019-03-29T12:24:56.144Z,13.28
2019-03-29T12:25:56.120Z,13.29
2019-03-29T12:26:56.109Z,13.23
2019-03-29T12:27:56.139Z,13.30
2019-03-29T12:28:56.161Z,13.30
2019-03-29T12:29:56.108Z,13.30
2019-03-29T12:30:56.069Z,13.39
2019-03-29T12:31:56.047Z,13.33
2019-03-29T12:32:56.079Z,13.38
2019-03-29T12:33:56.032Z,13.28
2019-03-29T12:34:56.017Z,13.29
2019-03-29T12:35:56.004Z,13.17
2019-03-29T12:36:55.999Z,13.17
2019-03-29T12:37:56.024Z,13.14
2019-03-29T12:38:55.973Z,13.12
2019-03-29T12:39:55.961Z,13.30
2019-03-29T12:40:55.961Z,13.26
2019-03-29T12:41:55.945Z,13.19
2019-03-29T12:42:55.927Z,13.28
2019-03-29T12:43:56.277Z,13.29
2019-03-29T12:44:55.904Z,13.20
2019-03-29T12:45:55.918Z,13.28
2019-03-29T12:46:55.890Z,13.28
2019-03-29T12:47:55.882Z,13.25
2019-03-29T12:48:55.862Z,13.30
2019-03-29T12:49:55.894Z,13.29
2019-03-29T12:50:55.846Z,13.42
2019-03-29T12:51:55.839Z,13.45